Time;durP1;ratioP1;P1;durP2;ratioP2;P2;SDS_P1;SDS_P2;PMS_P1;PMS_P2;Temp;Humidity;BMP_temperature;BMP_pressure;BME280_temperature;BME280_humidity;BME280_pressure;Samples;Min_cycle;Max_cycle;Signal;HPM_P1;HPM_P2
2021/12/04 06:47:33;;;;;;;;;;;;;;;3.71;94.01;96015.41;4259690;27;10269;-74
2021/12/04 06:49:39;;;;;;;;;;;;;;;3.69;94.42;96001.69;4250330;27;5754;-74
2021/12/04 06:51:45;;;;;;;;;;;;;;;3.63;95.61;96012.03;4250374;27;5664;-73
2021/12/04 06:53:53;;;;;;;;;;;;;;;3.61;96.36;96008.75;4249468;27;5716;-74
2021/12/04 06:55:57;;;;;;;;;;;;;;;3.79;94.78;96004.09;4246447;27;5630;-73
2021/12/04 06:57:59;;;;;;;;;;;;;;;3.96;93.96;95997.00;4247708;27;5600;-74
2021/12/04 07:00:00;;;;;;;;;;;;;;;3.88;94.71;95992.63;4250257;27;6317;-73
2021/12/04 07:02:02;;;;;;;;;;;;;;;3.76;95.09;95994.81;4247497;27;5605;-74
2021/12/04 07:04:05;;;;;;;;;;;;;;;3.72;95.53;95995.31;4248549;27;5678;-73
2021/12/04 07:06:07;;;;;;;;;;;;;;;3.71;95.82;95985.84;4250137;27;5664;-74
2021/12/04 07:08:09;;;;;;;;;;;;;;;3.66;96.58;95985.53;4248455;27;5637;-74
2021/12/04 07:10:11;;;;;;;;;;;;;;;3.70;96.60;95984.22;4241517;27;5616;-73
2021/12/04 07:12:12;;;;;;;;;;;;;;;3.65;96.54;95984.72;4232727;28;5718;-73
2021/12/04 07:14:14;;;;;;;;;;;;;;;3.66;96.55;95980.31;4241124;27;6313;-73
2021/12/04 07:16:18;;;;;;;;;;;;;;;3.67;96.38;95981.94;4244059;27;5668;-73
2021/12/04 07:18:20;;;;;;;;;;;;;;;3.59;96.47;95980.16;4242320;27;5688;-73
2021/12/04 07:20:23;;;;;;;;;;;;;;;3.56;96.74;95980.50;4243335;27;5653;-74
2021/12/04 07:22:24;;;;;;;;;;;;;;;3.58;96.96;95977.72;4243600;27;5791;-74
2021/12/04 07:24:26;;;;;;;;;;;;;;;3.59;97.01;95979.34;4247698;27;5716;-73
2021/12/04 07:26:28;;;;;;;;;;;;;;;3.61;95.78;95980.00;4249530;27;5653;-73
2021/12/04 07:28:30;;;;;;;;;;;;;;;3.61;95.33;95969.53;4245850;27;5612;-74
2021/12/04 07:30:31;;;;;;;;;;;;;;;3.69;94.72;95974.72;4244750;27;5689;-73
2021/12/04 07:32:35;;;;;;;;;;;;;;;3.87;93.80;95975.31;4231051;28;5612;-75
2021/12/04 07:34:40;;;;;;;;;;;;;;;3.85;94.14;95963.38;4231382;28;5783;-73
2021/12/04 07:36:41;;;;;;;;;;;;;;;3.82;94.46;95953.25;4231123;28;5610;-73
2021/12/04 07:38:43;;;;;;;;;;;;;;;3.80;94.35;95951.63;4232844;28;5679;-73
2021/12/04 07:40:45;;;;;;;;;;;;;;;3.86;94.29;95959.81;4231424;28;6015;-73
2021/12/04 07:42:47;;;;;;;;;;;;;;;3.90;93.86;95950.63;4248370;27;5699;-73
2021/12/04 07:44:49;;;;;;;;;;;;;;;3.83;94.06;95947.88;4249860;27;5657;-72
2021/12/04 07:46:51;;;;;;;;;;;;;;;3.80;94.74;95946.41;4247173;27;5645;-73
2021/12/04 07:48:52;;;;;;;;;;;;;;;3.76;94.50;95933.88;4236585;28;5620;-72
2021/12/04 07:50:55;;;;;;;;;;;;;;;3.68;94.51;95923.44;4235584;27;5840;-73
2021/12/04 07:52:58;;;;;;;;;;;;;;;3.56;95.41;95930.84;4233716;28;5788;-72
2021/12/04 07:54:59;;;;;;;;;;;;;;;3.45;96.52;95921.59;4236715;28;5581;-72
2021/12/04 07:57:02;;;;;;;;;;;;;;;3.33;96.96;95914.31;4237082;27;5877;-72
2021/12/04 07:59:03;;;;;;;;;;;;;;;3.41;97.04;95915.09;4233495;28;5639;-72
2021/12/04 08:01:05;;;;;;;;;;;;;;;3.50;96.08;95919.28;4236073;28;5649;-72
2021/12/04 08:03:07;;;;;;;;;;;;;;;3.55;95.92;95910.94;4231623;28;5701;-71
2021/12/04 08:05:16;;;;;;;;;;;;;;;3.71;95.18;95920.47;4235596;28;5864;-72
2021/12/04 08:07:17;;;;;;;;;;;;;;;3.79;95.22;95912.59;4234905;28;6905;-72
2021/12/04 08:09:20;;;;;;;;;;;;;;;3.82;95.00;95914.88;4236117;28;5774;-73
2021/12/04 08:11:22;;;;;;;;;;;;;;;3.85;94.03;95909.31;4232073;28;5917;-71
2021/12/04 08:13:23;;;;;;;;;;;;;;;3.91;93.82;95908.59;4234503;28;6023;-72
2021/12/04 08:15:25;;;;;;;;;;;;;;;3.95;93.89;95903.84;4231828;28;5664;-70
2021/12/04 08:17:28;;;;;;;;;;;;;;;3.89;94.79;95904.53;4234920;28;5757;-72
2021/12/04 08:19:30;;;;;;;;;;;;;;;3.91;94.44;95908.59;4235157;28;5724;-72
2021/12/04 08:21:31;;;;;;;;;;;;;;;3.87;95.19;95894.25;4235243;28;5724;-72
2021/12/04 08:23:33;;;;;;;;;;;;;;;3.86;95.77;95887.41;4247662;27;5570;-73
2021/12/04 08:25:34;;;;;;;;;;;;;;;3.87;95.83;95886.41;4224570;28;5584;-72
2021/12/04 08:27:36;;;;;;;;;;;;;;;3.97;95.45;95889.63;4235975;28;5712;-72
2021/12/04 08:29:38;;;;;;;;;;;;;;;3.96;95.43;95890.56;4237320;28;5641;-71
2021/12/04 08:31:40;;;;;;;;;;;;;;;4.08;95.14;95883.16;4235916;28;5665;-71
2021/12/04 08:33:42;;;;;;;;;;;;;;;4.27;93.77;95882.66;4223057;28;5827;-73
2021/12/04 08:35:44;;;;;;;;;;;;;;;4.42;93.11;95882.72;4231361;28;6292;-72
2021/12/04 08:37:46;;;;;;;;;;;;;;;4.47;92.81;95880.38;4233360;28;5103;-72
2021/12/04 08:39:49;;;;;;;;;;;;;;;4.45;93.03;95877.13;4235735;28;8453;-71
2021/12/04 08:41:51;;;;;;;;;;;;;;;4.35;93.77;95876.56;4232098;28;5620;-72
2021/12/04 08:43:54;;;;;;;;;;;;;;;4.18;96.31;95875.06;4236311;27;5658;-72
2021/12/04 08:45:59;;;;;;;;;;;;;;;4.23;94.82;95863.09;4234340;28;5777;-72
2021/12/04 08:48:01;;;;;;;;;;;;;;;4.29;94.54;95851.91;4232960;28;5630;-73
2021/12/04 08:50:16;;;;;;;;;;;;;;;4.39;94.46;95856.91;4233490;28;5682;-73
2021/12/04 08:52:18;;;;;;;;;;;;;;;4.49;93.70;95859.25;4209785;28;5655;-72
2021/12/04 08:54:20;;;;;;;;;;;;;;;4.45;93.62;95856.19;4236368;27;5672;-72
2021/12/04 08:56:22;;;;;;;;;;;;;;;4.54;93.42;95855.13;4235011;28;5654;-73
2021/12/04 08:58:23;;;;;;;;;;;;;;;4.60;92.86;95859.66;4234363;28;5674;-72
2021/12/04 09:00:39;;;;;;;;;;;;;;;4.42;94.43;95842.63;4235001;28;6305;-71
2021/12/04 09:02:42;;;;;;;;;;;;;;;4.44;94.46;95838.88;4223684;28;6300;-72
2021/12/04 09:04:46;;;;;;;;;;;;;;;4.58;93.41;95838.06;4216632;28;5611;-72
2021/12/04 09:06:49;;;;;;;;;;;;;;;4.71;92.75;95828.78;4237064;27;6350;-73
2021/12/04 09:08:52;;;;;;;;;;;;;;;4.79;92.48;95833.94;4224212;27;5657;-72
2021/12/04 09:10:58;;;;;;;;;;;;;;;4.87;91.98;95834.66;4228865;28;5656;-72
2021/12/04 09:13:00;;;;;;;;;;;;;;;4.90;92.13;95828.25;4228891;28;5872;-71
2021/12/04 09:15:06;;;;;;;;;;;;;;;4.91;92.00;95824.63;4226935;28;5712;-71
2021/12/04 09:17:11;;;;;;;;;;;;;;;4.93;91.75;95833.13;4228673;28;5592;-71
2021/12/04 09:19:13;;;;;;;;;;;;;;;5.00;91.50;95826.16;4235797;28;5616;-71
2021/12/04 09:21:15;;;;;;;;;;;;;;;4.99;91.72;95826.34;4235233;28;5620;-71
2021/12/04 09:23:19;;;;;;;;;;;;;;;5.04;91.55;95824.00;4236977;28;6377;-72
2021/12/04 09:25:23;;;;;;;;;;;;;;;4.99;91.93;95821.94;4238652;28;5749;-70
2021/12/04 10:33:42;;;;;;;;;;;;;;;5.66;96.97;95760.56;4218649;28;5682;-72
2021/12/04 10:35:47;;;;;;;;;;;;;;;5.58;98.19;95768.56;4217551;28;5619;-71
2021/12/04 10:38:00;;;;;;;;;;;;;;;5.52;98.21;95759.63;4217323;28;5604;-72
2021/12/04 10:40:06;;;;;;;;;;;;;;;5.65;97.00;95759.75;4217257;28;5630;-71
2021/12/04 10:42:14;;;;;;;;;;;;;;;5.56;97.11;95768.75;4217512;28;5628;-71
2021/12/04 10:44:20;;;;;;;;;;;;;;;5.57;96.83;95765.13;4217621;28;5608;-72
2021/12/04 10:46:23;;;;;;;;;;;;;;;5.72;95.96;95765.88;4218223;28;5760;-72
2021/12/04 10:48:28;;;;;;;;;;;;;;;5.78;95.30;95754.66;4216999;28;5627;-71
2021/12/04 10:54:43;;;;;;;;;;;;;;;5.61;95.90;95742.78;4218434;28;5691;-72
2021/12/04 10:59:43;;;;;;;;;;;;;;;5.84;94.45;95747.81;4218663;28;5663;-71
2021/12/04 11:01:59;;;;;;;;;;;;;;;5.65;95.86;95741.38;4217160;28;5671;-72
2021/12/04 11:04:17;;;;;;;;;;;;;;;5.81;94.90;95743.78;4218192;28;5756;-71
2021/12/04 11:25:48;;;;;;;;;;;;;;;5.88;94.72;95724.63;4221475;28;5675;-72
2021/12/04 11:37:51;;;;;;;;;;;;;;;5.85;95.38;95736.31;4221285;28;5686;-72
2021/12/04 11:44:03;;;;;;;;;;;;;;;5.60;96.46;95730.66;4221443;28;6335;-72
2021/12/04 11:46:27;;;;;;;;;;;;;;;5.56;96.48;95739.91;4221021;28;5791;-72
2021/12/04 11:48:29;;;;;;;;;;;;;;;5.61;96.44;95734.91;4221189;28;5662;-72
2021/12/04 11:50:34;;;;;;;;;;;;;;;5.61;95.99;95737.53;4221065;28;5667;-72
2021/12/04 11:52:45;;;;;;;;;;;;;;;5.66;95.58;95737.75;4221120;28;5710;-72
2021/12/04 11:54:57;;;;;;;;;;;;;;;5.67;95.58;95742.03;4221375;28;5688;-72
2021/12/04 11:57:10;;;;;;;;;;;;;;;5.74;95.07;95742.06;4221011;28;6328;-73
2021/12/04 11:59:11;;;;;;;;;;;;;;;5.52;95.84;95730.78;4221036;28;5056;-73
2021/12/04 12:01:32;;;;;;;;;;;;;;;5.65;95.16;95746.63;4220997;28;5782;-73
2021/12/04 12:03:36;;;;;;;;;;;;;;;5.40;97.15;95745.38;4219856;28;5623;-72
2021/12/04 12:06:03;;;;;;;;;;;;;;;5.48;96.40;95745.28;4219837;28;5619;-72
2021/12/04 12:08:05;;;;;;;;;;;;;;;5.44;96.29;95744.03;4220780;28;5679;-72
2021/12/04 12:10:10;;;;;;;;;;;;;;;5.36;96.12;95742.34;4220963;28;5021;-72
2021/12/04 12:12:15;;;;;;;;;;;;;;;5.11;97.92;95739.25;4220704;28;7678;-73
2021/12/04 12:14:21;;;;;;;;;;;;;;;4.97;98.27;95717.31;4220869;28;5770;-72
2021/12/04 12:16:28;;;;;;;;;;;;;;;5.07;97.99;95703.13;4220637;28;5667;-72
2021/12/04 12:18:30;;;;;;;;;;;;;;;5.07;98.00;95703.13;4220525;28;5662;-72
2021/12/04 12:21:06;;;;;;;;;;;;;;;5.16;97.72;95696.75;4219461;28;5697;-72
2021/12/04 12:23:06;;;;;;;;;;;;;;;5.08;97.74;95694.25;4218423;28;5663;-72
2021/12/04 12:25:41;;;;;;;;;;;;;;;5.06;97.98;95686.59;4220464;28;5662;-72
2021/12/04 12:36:56;;;;;;;;;;;;;;;5.04;98.02;95712.16;4220457;28;5825;-73
2021/12/04 12:39:05;;;;;;;;;;;;;;;5.03;98.13;95707.91;4220654;28;5678;-73
2021/12/04 12:41:09;;;;;;;;;;;;;;;5.13;97.84;95715.50;4220192;28;5678;-73
2021/12/04 12:43:17;;;;;;;;;;;;;;;5.07;97.86;95716.22;4220385;28;5673;-73
2021/12/04 12:45:23;;;;;;;;;;;;;;;5.12;97.41;95717.28;4220624;28;5662;-72
2021/12/04 12:47:31;;;;;;;;;;;;;;;5.19;97.42;95712.91;4202526;28;5634;-72
2021/12/04 12:49:37;;;;;;;;;;;;;;;5.12;97.34;95704.19;4218819;28;5635;-72
2021/12/04 12:51:39;;;;;;;;;;;;;;;4.94;97.71;95709.03;4220223;28;5714;-73
2021/12/04 12:53:46;;;;;;;;;;;;;;;5.02;98.09;95721.22;4220265;28;6347;-72
2021/12/04 12:55:50;;;;;;;;;;;;;;;5.04;97.97;95713.97;4220050;28;5670;-71
2021/12/04 12:57:52;;;;;;;;;;;;;;;5.09;97.86;95719.44;4219997;28;5690;-72
2021/12/04 13:12:02;;;;;;;;;;;;;;;4.92;99.96;95738.03;4219753;28;5678;-72
2021/12/04 13:14:17;;;;;;;;;;;;;;;4.97;99.29;95726.97;4219775;28;5662;-72
2021/12/04 13:16:23;;;;;;;;;;;;;;;4.92;100.00;95719.69;4219626;28;5674;-72
2021/12/04 13:18:26;;;;;;;;;;;;;;;5.00;99.86;95708.31;4219660;28;5680;-73
2021/12/04 13:20:28;;;;;;;;;;;;;;;4.97;99.49;95703.41;4218726;28;5607;-72
2021/12/04 13:22:31;;;;;;;;;;;;;;;5.03;99.23;95707.13;4218506;28;5679;-72
2021/12/04 13:24:35;;;;;;;;;;;;;;;5.23;98.04;95701.09;4219640;28;5682;-72
2021/12/04 13:26:46;;;;;;;;;;;;;;;5.36;97.21;95694.34;4219894;28;5666;-72
2021/12/04 13:28:51;;;;;;;;;;;;;;;5.30;96.60;95687.22;4218190;28;5619;-72
2021/12/04 13:30:53;;;;;;;;;;;;;;;5.31;97.31;95684.41;4218913;28;5630;-73
2021/12/04 13:32:55;;;;;;;;;;;;;;;5.37;97.07;95675.81;4219773;28;5671;-73
2021/12/04 13:35:07;;;;;;;;;;;;;;;5.50;96.28;95675.13;4218558;28;5634;-73
2021/12/04 13:37:11;;;;;;;;;;;;;;;5.63;95.69;95672.59;4219234;28;5683;-72
2021/12/04 13:39:16;;;;;;;;;;;;;;;5.79;95.07;95672.34;4219273;28;5663;-72
2021/12/04 13:41:18;;;;;;;;;;;;;;;5.79;95.00;95688.06;4219328;28;5686;-72
2021/12/04 13:43:21;;;;;;;;;;;;;;;5.85;94.98;95695.16;4219429;28;5754;-71
2021/12/04 13:45:23;;;;;;;;;;;;;;;5.75;94.65;95689.44;4218914;28;5670;-71
2021/12/04 13:47:25;;;;;;;;;;;;;;;5.76;94.67;95695.50;4217554;28;5690;-73
2021/12/04 13:49:37;;;;;;;;;;;;;;;5.91;94.15;95712.00;4218725;28;5724;-71
2021/12/04 13:51:39;;;;;;;;;;;;;;;5.91;94.53;95708.56;4218514;28;5639;-72
2021/12/04 13:53:44;;;;;;;;;;;;;;;5.87;94.93;95710.72;4219283;28;5666;-71
2021/12/04 13:56:04;;;;;;;;;;;;;;;5.90;94.36;95709.53;4219080;28;5659;-72
2021/12/04 13:58:06;;;;;;;;;;;;;;;6.01;93.85;95711.69;4219032;28;5671;-73
2021/12/04 14:00:11;;;;;;;;;;;;;;;6.05;94.25;95705.03;4219182;28;5774;-72
2021/12/04 14:02:24;;;;;;;;;;;;;;;6.09;93.90;95712.31;4219205;28;5671;-72
2021/12/04 14:04:26;;;;;;;;;;;;;;;6.01;94.39;95719.53;4217842;28;5619;-73
2021/12/04 14:06:28;;;;;;;;;;;;;;;5.96;94.34;95729.78;4219427;28;5782;-73
2021/12/04 14:08:30;;;;;;;;;;;;;;;5.78;95.33;95743.34;4219073;28;5722;-73
2021/12/04 14:10:37;;;;;;;;;;;;;;;5.76;96.15;95756.63;4217711;28;5619;-73
2021/12/04 14:12:39;;;;;;;;;;;;;;;5.59;98.29;95726.44;4219239;28;5667;-73
2021/12/04 14:14:41;;;;;;;;;;;;;;;5.57;98.75;95683.88;4219207;28;5666;-73
2021/12/04 14:16:44;;;;;;;;;;;;;;;5.69;98.95;95699.88;4219317;28;5654;-73
2021/12/04 14:18:46;;;;;;;;;;;;;;;5.60;99.50;95704.44;4219613;28;5667;-73
2021/12/04 14:20:51;;;;;;;;;;;;;;;5.68;99.25;95706.94;4218916;28;5682;-72
2021/12/04 14:22:55;;;;;;;;;;;;;;;5.62;99.63;95705.06;4219513;28;5675;-73
2021/12/04 14:24:59;;;;;;;;;;;;;;;5.63;100.00;95704.06;4219503;28;5737;-74
2021/12/04 14:27:03;;;;;;;;;;;;;;;5.69;100.00;95698.06;4219261;28;5670;-73
2021/12/04 14:29:13;;;;;;;;;;;;;;;5.77;99.89;95700.53;4218458;28;5612;-73
2021/12/04 14:31:22;;;;;;;;;;;;;;;5.92;99.01;95687.41;4219308;28;5663;-73
2021/12/04 14:33:26;;;;;;;;;;;;;;;6.08;98.05;95691.53;4217907;28;5619;-73
2021/12/04 14:35:35;;;;;;;;;;;;;;;6.18;97.81;95699.88;4217651;28;5608;-73
2021/12/04 14:37:42;;;;;;;;;;;;;;;6.18;98.03;95692.00;4217867;28;5710;-73
2021/12/04 14:39:49;;;;;;;;;;;;;;;6.15;98.15;95679.28;4219597;28;5662;-73
2021/12/04 14:41:50;;;;;;;;;;;;;;;6.25;97.55;95692.84;4219215;28;5730;-72
2021/12/04 14:43:52;;;;;;;;;;;;;;;6.40;96.75;95687.47;4221688;28;6319;-72
2021/12/04 14:45:56;;;;;;;;;;;;;;;6.48;96.37;95687.34;4219623;28;5735;-72
2021/12/04 14:48:06;;;;;;;;;;;;;;;6.51;96.09;95696.63;4219856;28;5635;-72
2021/12/04 14:50:10;;;;;;;;;;;;;;;6.28;97.71;95686.41;4202571;28;5752;-72
2021/12/04 14:52:23;;;;;;;;;;;;;;;6.25;98.12;95692.06;4217328;28;5619;-73
2021/12/04 14:54:30;;;;;;;;;;;;;;;6.46;96.89;95699.03;4217119;28;5615;-72
2021/12/04 14:56:33;;;;;;;;;;;;;;;6.50;96.80;95690.56;4221932;28;5604;-72
2021/12/04 14:58:35;;;;;;;;;;;;;;;6.33;98.06;95684.00;4235152;27;5825;-73
2021/12/04 15:00:41;;;;;;;;;;;;;;;6.30;99.27;95673.91;4236679;28;5657;-72
2021/12/04 15:03:11;;;;;;;;;;;;;;;6.30;99.70;95669.47;4235080;28;5716;-73
2021/12/04 15:05:24;;;;;;;;;;;;;;;6.45;99.63;95666.69;4249359;27;5590;-72
2021/12/04 15:07:32;;;;;;;;;;;;;;;6.56;99.01;95686.34;4237006;27;5670;-71
2021/12/04 15:09:34;;;;;;;;;;;;;;;6.59;98.62;95683.34;4236143;28;5609;-72
2021/12/04 15:11:47;;;;;;;;;;;;;;;6.53;99.66;95673.59;4237909;28;5653;-72
2021/12/04 15:13:59;;;;;;;;;;;;;;;6.45;99.43;95671.13;4237750;28;5661;-72
2021/12/04 15:16:04;;;;;;;;;;;;;;;6.52;99.82;95679.88;4236539;28;5880;-73
2021/12/04 15:18:10;;;;;;;;;;;;;;;6.52;100.00;95674.63;4235883;28;5720;-72
2021/12/04 15:20:18;;;;;;;;;;;;;;;6.58;99.63;95682.53;4222510;28;5682;-72
2021/12/04 15:22:30;;;;;;;;;;;;;;;6.69;98.84;95674.09;4235469;28;5677;-73
2021/12/04 15:24:35;;;;;;;;;;;;;;;6.83;98.13;95680.22;4234831;28;5972;-73
2021/12/04 15:26:40;;;;;;;;;;;;;;;6.90;97.44;95686.28;4234591;28;5600;-72
2021/12/04 15:28:49;;;;;;;;;;;;;;;6.92;97.31;95705.31;4236411;28;5608;-72
2021/12/04 15:30:54;;;;;;;;;;;;;;;6.80;98.04;95685.88;4210052;28;5850;-73
2021/12/04 15:32:55;;;;;;;;;;;;;;;6.82;98.17;95693.53;4235629;28;5605;-72
2021/12/04 15:35:13;;;;;;;;;;;;;;;6.72;98.90;95693.91;4235594;28;5650;-72
2021/12/04 15:37:26;;;;;;;;;;;;;;;6.80;98.51;95693.75;4237126;28;5764;-73
2021/12/04 15:39:35;;;;;;;;;;;;;;;6.81;98.32;95682.22;4218280;28;5652;-72
2021/12/04 15:41:52;;;;;;;;;;;;;;;6.80;98.29;95670.09;4232998;27;5677;-72
2021/12/04 15:55:21;;;;;;;;;;;;;;;6.90;97.02;95667.06;4234690;28;6400;-76
2021/12/04 15:57:23;;;;;;;;;;;;;;;6.90;97.07;95683.66;4236644;28;5612;-77
2021/12/04 15:59:30;;;;;;;;;;;;;;;6.73;98.09;95658.75;4236230;28;5588;-76
2021/12/04 16:01:33;;;;;;;;;;;;;;;6.79;98.10;95676.34;4235215;28;5660;-76
2021/12/04 16:03:40;;;;;;;;;;;;;;;6.80;97.36;95690.31;4232330;28;5780;-73
2021/12/04 16:05:52;;;;;;;;;;;;;;;6.80;97.78;95691.13;4236482;28;5645;-73
2021/12/04 16:08:07;;;;;;;;;;;;;;;6.81;97.48;95697.19;4214389;28;5827;-73
2021/12/04 16:10:12;;;;;;;;;;;;;;;6.83;97.21;95695.16;4207099;28;5712;-73
2021/12/04 16:12:15;;;;;;;;;;;;;;;6.85;97.70;95712.34;4233507;28;5661;-73
2021/12/04 16:14:17;;;;;;;;;;;;;;;6.86;98.14;95713.97;4237745;28;5649;-73
2021/12/04 16:16:23;;;;;;;;;;;;;;;6.87;97.76;95712.94;4236452;28;6445;-73
2021/12/04 16:18:27;;;;;;;;;;;;;;;6.82;98.82;95719.81;4230188;28;6420;-73
2021/12/04 16:20:30;;;;;;;;;;;;;;;6.84;98.53;95723.84;4236839;28;5763;-73
2021/12/04 16:22:39;;;;;;;;;;;;;;;6.64;100.00;95744.78;4237404;28;5677;-72
2021/12/04 16:24:47;;;;;;;;;;;;;;;6.88;98.33;95730.34;4236179;28;5620;-73
2021/12/04 16:26:49;;;;;;;;;;;;;;;6.89;94.38;95710.13;4237637;27;5669;-72
2021/12/04 16:31:15;;;;;;;;;;;;;;;6.82;94.66;95714.56;4222891;28;5619;-73
2021/12/04 16:37:40;;;;;;;;;;;;;;;6.99;95.33;95715.81;4233603;28;6297;-75
2021/12/04 16:39:43;;;;;;;;;;;;;;;7.07;92.36;95712.22;4231118;28;5701;-75
2021/12/04 16:41:52;;;;;;;;;;;;;;;7.10;93.17;95714.44;4229215;28;5653;-75
2021/12/04 16:43:54;;;;;;;;;;;;;;;7.12;93.07;95709.78;4226961;27;5982;-75
2021/12/04 16:45:59;;;;;;;;;;;;;;;7.15;93.63;95704.16;4210746;28;5750;-75
2021/12/04 16:48:07;;;;;;;;;;;;;;;7.13;92.20;95720.09;4232975;28;6219;-76
2021/12/04 16:50:17;;;;;;;;;;;;;;;7.16;90.15;95705.78;4229964;28;7698;-76
2021/12/04 16:55:01;;;;;;;;;;;;;;;7.16;91.03;95713.66;4222259;27;8688;-76
2021/12/04 16:59:23;;;;;;;;;;;;;;;7.17;91.34;95702.97;4234220;27;5764;-75
2021/12/04 17:01:26;;;;;;;;;;;;;;;7.23;91.77;95717.09;4232509;28;5707;-73
2021/12/04 17:03:28;;;;;;;;;;;;;;;7.21;91.51;95712.06;4231222;28;5756;-74
2021/12/04 17:05:33;;;;;;;;;;;;;;;7.22;90.19;95707.59;4232344;28;5664;-73
2021/12/04 17:07:36;;;;;;;;;;;;;;;7.24;89.92;95711.66;4233792;28;5769;-73
2021/12/04 17:09:40;;;;;;;;;;;;;;;7.26;89.52;95708.84;4229995;28;5719;-73
2021/12/04 17:11:42;;;;;;;;;;;;;;;7.26;88.03;95700.97;4230738;28;5815;-72
2021/12/04 17:13:45;;;;;;;;;;;;;;;7.25;88.24;95694.91;4232616;28;5616;-72
2021/12/04 17:15:48;;;;;;;;;;;;;;;7.25;88.44;95696.72;4233511;27;5765;-72
2021/12/04 17:17:50;;;;;;;;;;;;;;;7.29;86.23;95703.19;4233680;28;5756;-72
2021/12/04 17:19:53;;;;;;;;;;;;;;;7.27;86.22;95692.88;4232923;27;5793;-72
2021/12/04 17:21:55;;;;;;;;;;;;;;;7.28;85.56;95699.75;4233417;28;5751;-74
2021/12/04 17:23:58;;;;;;;;;;;;;;;7.30;86.26;95683.78;4232175;28;5823;-74
2021/12/04 17:25:59;;;;;;;;;;;;;;;7.34;85.07;95684.16;4233820;27;5869;-74
2021/12/04 17:28:03;;;;;;;;;;;;;;;7.34;86.10;95687.63;4233350;28;5737;-74
2021/12/04 17:30:07;;;;;;;;;;;;;;;7.31;85.51;95693.28;4233502;27;5678;-74
2021/12/04 17:32:16;;;;;;;;;;;;;;;7.34;85.25;95682.34;4233263;28;5860;-74
2021/12/04 17:34:18;;;;;;;;;;;;;;;7.40;85.62;95681.56;4233471;27;5784;-75
2021/12/04 17:36:22;;;;;;;;;;;;;;;7.41;85.83;95674.50;4230414;27;5765;-75
2021/12/04 17:38:24;;;;;;;;;;;;;;;7.42;86.61;95669.03;4233134;28;5748;-75
2021/12/04 17:40:27;;;;;;;;;;;;;;;7.41;86.49;95672.66;4233494;28;5756;-75
2021/12/04 17:42:29;;;;;;;;;;;;;;;7.43;86.62;95675.91;4232452;28;5749;-74
2021/12/04 17:44:31;;;;;;;;;;;;;;;7.44;86.79;95672.25;4228155;27;6447;-74
2021/12/04 17:46:33;;;;;;;;;;;;;;;7.53;85.89;95680.78;4231033;28;6080;-73
2021/12/04 17:48:35;;;;;;;;;;;;;;;7.51;84.65;95683.59;4212706;28;5749;-73
2021/12/04 17:50:42;;;;;;;;;;;;;;;7.49;85.62;95685.63;4225951;27;5760;-73
2021/12/04 17:52:46;;;;;;;;;;;;;;;7.36;87.68;95687.41;4227346;27;5707;-71
2021/12/04 17:54:48;;;;;;;;;;;;;;;7.29;87.40;95695.31;4229990;28;5719;-72
2021/12/04 17:56:51;;;;;;;;;;;;;;;7.22;87.80;95689.19;4220277;28;5905;-73
2021/12/04 17:58:54;;;;;;;;;;;;;;;7.13;88.93;95682.50;4224835;27;5728;-73
2021/12/04 18:00:59;;;;;;;;;;;;;;;7.10;88.73;95688.97;4226309;27;5707;-72
2021/12/04 18:03:02;;;;;;;;;;;;;;;7.08;88.54;95695.44;4225925;28;5719;-73
2021/12/04 18:05:06;;;;;;;;;;;;;;;7.03;88.56;95700.50;4242235;27;5707;-72
2021/12/04 18:07:12;;;;;;;;;;;;;;;7.01;88.16;95704.09;4218859;27;5890;-73
2021/12/04 18:09:15;;;;;;;;;;;;;;;6.96;88.36;95700.47;4216779;28;5780;-72
2021/12/04 18:11:35;;;;;;;;;;;;;;;6.96;88.31;95709.16;4215669;28;6322;-73
2021/12/04 18:13:43;;;;;;;;;;;;;;;6.90;88.91;95709.91;4216793;28;5860;-72
2021/12/04 18:15:54;;;;;;;;;;;;;;;6.89;88.33;95736.41;4216107;28;5847;-73
2021/12/04 18:17:56;;;;;;;;;;;;;;;6.77;88.08;95725.63;4229081;28;5748;-72
2021/12/04 18:19:58;;;;;;;;;;;;;;;6.61;90.10;95731.22;4226418;28;5803;-72
2021/12/04 18:22:00;;;;;;;;;;;;;;;6.54;90.56;95727.75;4231234;28;5715;-73
2021/12/04 18:24:04;;;;;;;;;;;;;;;6.52;89.77;95745.50;4227777;28;5805;-73
2021/12/04 18:26:06;;;;;;;;;;;;;;;6.57;88.31;95743.94;4231216;28;5665;-73
2021/12/04 18:28:08;;;;;;;;;;;;;;;6.50;87.16;95742.28;4212736;28;5707;-70
2021/12/04 18:30:14;;;;;;;;;;;;;;;6.50;87.29;95739.66;4217505;27;5724;-70
2021/12/04 18:32:15;;;;;;;;;;;;;;;6.47;88.42;95750.53;4226367;28;5860;-74
2021/12/04 18:34:17;;;;;;;;;;;;;;;6.49;89.43;95756.41;4229559;28;5867;-75
2021/12/04 18:36:19;;;;;;;;;;;;;;;6.41;89.54;95766.03;4206044;28;5750;-78
2021/12/04 18:38:22;;;;;;;;;;;;;;;6.55;89.25;95771.38;4226637;28;6501;-76
2021/12/04 18:40:24;;;;;;;;;;;;;;;6.58;89.01;95784.13;4213086;28;5721;-75
2021/12/04 18:42:28;;;;;;;;;;;;;;;6.49;89.43;95787.91;4228339;28;5715;-76
2021/12/04 18:44:30;;;;;;;;;;;;;;;6.51;89.55;95806.91;4231083;27;6464;-73
2021/12/04 18:46:34;;;;;;;;;;;;;;;6.48;88.48;95812.56;4228883;28;5724;-76
2021/12/04 18:48:36;;;;;;;;;;;;;;;6.50;86.42;95815.78;4229417;27;5772;-78
2021/12/04 18:50:40;;;;;;;;;;;;;;;6.42;86.28;95827.25;4224340;28;5739;-75
2021/12/04 18:52:42;;;;;;;;;;;;;;;6.34;82.42;95828.22;4231486;28;6508;-75
2021/12/04 18:54:44;;;;;;;;;;;;;;;6.29;80.92;95833.19;4227859;28;5719;-73
2021/12/04 18:56:45;;;;;;;;;;;;;;;6.30;79.46;95842.69;4213889;28;5725;-74
2021/12/04 18:58:48;;;;;;;;;;;;;;;6.20;79.54;95844.81;4231406;28;5752;-76
2021/12/04 19:00:49;;;;;;;;;;;;;;;6.14;78.30;95858.72;4229415;28;5876;-71
2021/12/04 19:02:57;;;;;;;;;;;;;;;6.12;79.76;95861.53;4222009;28;5620;-68
2021/12/04 19:04:59;;;;;;;;;;;;;;;6.08;80.33;95856.81;4228482;28;5788;-69
2021/12/04 19:07:03;;;;;;;;;;;;;;;6.08;78.73;95848.97;4229379;28;5812;-69
2021/12/04 19:09:07;;;;;;;;;;;;;;;6.04;78.13;95851.16;4213433;27;5779;-73
2021/12/04 19:11:09;;;;;;;;;;;;;;;6.04;77.48;95847.72;4229827;28;5715;-71
2021/12/04 19:13:12;;;;;;;;;;;;;;;6.01;78.73;95840.22;4228600;28;5714;-74
2021/12/04 19:15:19;;;;;;;;;;;;;;;6.02;79.68;95854.97;4212304;28;5841;-76
2021/12/04 19:17:26;;;;;;;;;;;;;;;6.02;78.85;95865.47;4221957;28;6755;-78
2021/12/04 19:19:29;;;;;;;;;;;;;;;6.00;79.01;95883.19;4222294;28;5793;-75
2021/12/04 19:21:31;;;;;;;;;;;;;;;6.01;79.08;95880.41;4231735;28;5933;-75
2021/12/04 19:23:33;;;;;;;;;;;;;;;5.99;78.02;95882.38;4231297;28;5799;-75
2021/12/04 19:25:36;;;;;;;;;;;;;;;5.97;77.94;95887.00;4213091;28;5683;-77
2021/12/04 19:27:39;;;;;;;;;;;;;;;5.95;78.04;95890.81;4229319;28;5830;-77
2021/12/04 19:29:44;;;;;;;;;;;;;;;5.96;77.88;95900.31;4232028;27;5748;-75
2021/12/04 19:31:54;;;;;;;;;;;;;;;5.95;78.26;95896.06;4228534;27;5752;-76
2021/12/04 19:34:32;;;;;;;;;;;;;;;5.93;77.44;95883.13;4235568;27;5707;-74
2021/12/04 19:50:41;;;;;;;;;;;;;;;5.99;79.40;95920.91;4214237;28;5804;-76
2021/12/04 19:53:32;;;;;;;;;;;;;;;5.98;79.63;95927.16;4230363;28;5795;-76
2021/12/04 19:55:10;;;;;;;;;;;;;;;5.71;81.13;95934.72;4217901;28;5748;-75
2021/12/04 19:57:18;;;;;;;;;;;;;;;5.89;79.45;95943.97;4214982;28;5627;-76
2021/12/04 19:59:23;;;;;;;;;;;;;;;5.84;80.50;95947.16;4232033;28;5867;-75
2021/12/04 20:01:38;;;;;;;;;;;;;;;5.96;81.91;95947.53;4229483;28;5752;-78
2021/12/04 20:03:57;;;;;;;;;;;;;;;6.03;82.43;95957.09;4232365;28;5707;-78
2021/12/04 20:06:09;;;;;;;;;;;;;;;5.79;82.52;95950.34;4233677;28;5715;-76
2021/12/04 20:15:09;;;;;;;;;;;;;;;5.96;82.37;95968.50;4228458;28;5843;-77
2021/12/04 20:17:10;;;;;;;;;;;;;;;5.93;82.16;95964.47;4232747;28;5744;-77
2021/12/04 20:19:12;;;;;;;;;;;;;;;5.99;81.06;95966.31;4230289;27;5855;-77
2021/12/04 20:21:23;;;;;;;;;;;;;;;5.97;77.98;95970.94;4216400;28;5763;-78
2021/12/04 20:23:26;;;;;;;;;;;;;;;5.94;78.02;95979.19;4203433;28;5738;-77
2021/12/04 20:25:35;;;;;;;;;;;;;;;5.99;75.96;95978.63;4231131;28;6539;-77
2021/12/04 20:27:40;;;;;;;;;;;;;;;5.92;76.96;95996.13;4233810;28;5868;-77
2021/12/04 21:13:27;;;;;;;;;;;;;;;4.93;78.20;96110.75;4211025;27;5758;-71
